• Join FlightAware (Why Join?)
  • Login
  • US Flag GB Flag 
19:38 EST


 

Airport Tracker/Info


-or-


 

Live Flight TrackerFlight Track Log ✈ DAL6115 ✈ 14-Apr-2013 ✈ KJFK - KROC

Flight Track Log - Related Links

Times and Time Zones

All times are in EDT time to prevent confusion due to time zone crossing. See the DAL6115 flight status page for this flight to view local times or setup timezone preferences in your user account.

Time Position Orientation Groundspeed Altitude Reporting Facility
EDT Latitude Longitude Course Direction KTS MPH feet Rate Location/Type
09:44 40.6333 -73.8333 316° Northwest 167 192 2,400  Level New York TRACON
09:45 40.6000 -73.8333 180° South 243 280 4,800 1,800 Climbing New York TRACON
09:46 40.6333 -73.7500 62° Northeast 272 313 6,000 1,560 Climbing New York TRACON
09:47 40.6833 -73.6667 52° Northeast 294 338 8,000 2,160 Climbing New York TRACON
09:48 40.7333 -73.5833 52° Northeast 301 346 10,200 1,860 Climbing New York TRACON
09:49 40.9844 -74.2537 316° Northwest  Level FlightAware Approximate
09:49 40.8000 -73.5667 11° North 286 329 11,600  Level New York TRACON
09:50 40.9047 -73.6922 318° Northwest 299 344 14,200 1,380 Climbing New York Center
09:51 40.9439 -73.7956 297° West 299 344 15,800 1,320 Climbing New York Center
09:52 40.9767 -73.8878 295° West 299 344 16,900 840 Climbing New York Center
09:54 41.0194 -74.0025 296° West 309 356 17,600 960 Climbing New York Center
09:54 41.0464 -74.0808 295° West 309 356 18,900 1,140 Climbing New York Center
09:55 41.0892 -74.1875 298° West 298 343 19,900 540 Climbing New York Center
09:56 41.1236 -74.2939 293° West 293 337 20,000  Climbing New York Center
09:58 41.1622 -74.3981 296° West 298 343 20,000  Level New York Center
09:58 41.1986 -74.4964 296° West 305 351 20,000  Level New York Center
09:59 41.2372 -74.5950 298° West 305 351 20,000  Level New York Center
10:01 41.2847 -74.6722 309° West 300 345 20,000  Level New York Center
10:01 41.3358 -74.7581 308° West 300 345 20,000  Level New York Center
10:02 41.3872 -74.8414 309° West 300 345 20,000  Level New York Center
10:04 41.4364 -74.9219 309° West 295 339 20,000  Level New York Center
10:04 41.4878 -75.0053 309° West 290 334 20,000  Level New York Center
10:05 41.5367 -75.0861 309° West 290 334 20,000  Level New York Center
10:06 41.5772 -75.1747 301° West 290 334 20,000  Level New York Center
10:07 41.6069 -75.2708 292° West 285 328 20,000  Level New York Center
10:08 41.6344 -75.3697 290° West 280 322 20,000  Level New York Center
10:09 41.6619 -75.4633 291° West 280 322 20,000  Level New York Center
10:11 41.6894 -75.5597 291° West 280 322 20,000  Level New York Center
10:11 41.7167 -75.6561 291° West 275 316 20,000  Level New York Center
10:12 41.7439 -75.7528 291° West 275 316 20,000  Level New York Center
10:13 41.7711 -75.8464 291° West 275 316 20,000  Level New York Center
10:15 41.7983 -75.9431 291° West 275 316 20,000  Level New York Center
10:15 41.8253 -76.0397 291° West 275 316 20,000  Level New York Center
10:17 41.8500 -76.1364 289° West 275 316 20,000  Level New York Center
10:18 41.8769 -76.2306 291° West 275 316 20,000  Level New York Center
10:18 41.9036 -76.3275 290° West 275 316 20,000  Level New York Center
10:20 41.9303 -76.4244 290° West 275 316 20,000  Level New York Center
10:20 41.9569 -76.5217 290° West 275 316 20,000 -120 Level New York Center
10:21 41.9833 -76.6189 290° West 275 316 19,800 -540 Descending New York Center
10:23 42.0100 -76.7161 290° West 275 316 19,000 -1,020 Descending New York Center
10:23 42.0381 -76.8192 290° West 280 322 17,900 -1,080 Descending New York Center
10:25 42.0681 -76.9225 291° West 287 330 16,900 -1,020 Descending New York Center
10:25 42.0803 -76.9683 290° West 301 346 16,500 -660 Descending Cleveland Center
10:26 42.1531 -77.0258 330° Northwest 296 341 16,000 -300 Descending Cleveland Center
10:27 42.2444 -77.0181 North 289 333 16,000  Level Cleveland Center
10:28 42.3406 -77.0181 360° North 315 362 16,000  Level Cleveland Center
10:29 42.4319 -77.0103 North 321 369 16,000 -180 Level Cleveland Center
10:30 42.5239 -77.0133 359° North 326 375 15,700 -840 Descending Cleveland Center
10:30 42.5600 -77.0397 332° Northwest 300 345 14,900 -1,620 Descending Cleveland Center
10:31 42.5925 -77.0744 322° Northwest 303 349 14,100 -1,560 Descending Cleveland Center
10:31 42.6292 -77.1175 319° Northwest 306 352 13,200 -1,500 Descending Cleveland Center
10:32 42.6592 -77.1497 322° Northwest 298 343 12,600 -1,620 Descending Cleveland Center
10:32 42.6961 -77.1958 317° Northwest 309 356 11,600 -1,620 Descending Cleveland Center
10:33 42.7239 -77.2225 325° Northwest 303 349 11,000 -1,560 Descending Cleveland Center
10:33 42.7603 -77.2517 330° Northwest 277 319 10,200 -1,320 Descending Cleveland Center
10:34 42.7858 -77.2731 328° Northwest 290 334 9,700 -1,320 Descending Cleveland Center
10:34 42.8158 -77.2969 330° Northwest 234 269 8,900 -1,440 Descending Cleveland Center
10:35 42.8433 -77.3181 331° Northwest 257 296 8,300 -1,500 Descending Cleveland Center
10:35 42.8733 -77.3450 327° Northwest 236 272 7,400 -1,500 Descending Cleveland Center
10:36 42.9011 -77.3633 334° Northwest 241 277 6,800 -1,500 Descending Cleveland Center
10:36 42.9331 -77.3900 329° Northwest 242 278 5,900 -1,440 Descending Cleveland Center
10:37 42.9586 -77.4086 332° Northwest 241 277 5,400 -1,620 Descending Cleveland Center
10:37 42.9947 -77.4408 327° Northwest 234 269 4,100 -1,740 Descending Cleveland Center
10:38 43.0139 -77.4542 333° Northwest 241 277 3,700 -1,440 Descending Cleveland Center
10:38 43.0522 -77.4833 331° Northwest 233 268 2,700 -1,200 Descending Cleveland Center
10:39 43.0672 -77.4997 321° Northwest 241 277 2,500 -300 Descending Cleveland Center
10:39 43.1075 -77.5261 334° Northwest 228 262 2,400 -120 Descending Cleveland Center
10:40 43.1244 -77.5339 341° North 231 266 2,400  Level Cleveland Center
10:40 43.1606 -77.5606 332° Northwest 203 234 2,400 -120 Level Cleveland Center
10:41 43.1847 -77.6078 305° West 175 201 2,300 -540 Descending Cleveland Center
10:42 43.1586 -77.6461 227° Southwest 135 155 1,400 -900 Descending Cleveland Center
10:44 43.1167 -77.6667 324° Northwest  Level FlightAware Approximate
10:51 43.1191 -77.6719 324° Northwest  Level Estimated